Time;durP1;ratioP1;P1;durP2;ratioP2;P2;SDS_P1;SDS_P2;PMS_P1;PMS_P2;Temp;Humidity;BMP_temperature;BMP_pressure;BME280_temperature;BME280_humidity;BME280_pressure;Samples;Min_cycle;Max_cycle;Signal;HPM_P1;HPM_P2
2024/03/05 00:01:59;;;;;;;22.93;15.33;;;;;4.10;100673.00;;;;10387183;28;20218;-79
2024/03/05 00:07:01;;;;;;;21.93;14.50;;;;;4.30;100677.00;;;;10364951;28;20848;-80
2024/03/05 00:12:05;;;;;;;21.47;15.83;;;;;4.50;100666.00;;;;10374018;28;20372;-80
2024/03/05 00:17:06;;;;;;;21.13;15.90;;;;;4.60;100666.00;;;;10343197;28;20918;-79
2024/03/05 00:22:08;;;;;;;22.37;14.53;;;;;4.70;100667.00;;;;10332756;28;20222;-78
2024/03/05 00:27:09;;;;;;;21.23;14.53;;;;;4.70;100655.00;;;;10371286;28;20227;-78
2024/03/05 00:32:10;;;;;;;19.40;14.60;;;;;4.70;100656.00;;;;10365666;28;20215;-78
2024/03/05 00:37:11;;;;;;;19.30;14.47;;;;;4.80;100654.00;;;;10346444;28;20224;-79
2024/03/05 00:42:12;;;;;;;20.17;14.00;;;;;4.80;100657.00;;;;10353289;28;20237;-78
2024/03/05 00:47:14;;;;;;;20.83;14.63;;;;;4.80;100653.00;;;;10333130;28;20223;-78
2024/03/05 00:52:15;;;;;;;22.23;14.47;;;;;4.90;100657.00;;;;10376701;28;20257;-78
2024/03/05 00:57:16;;;;;;;22.13;14.80;;;;;4.90;100658.00;;;;10359311;28;20226;-78
2024/03/05 01:02:17;;;;;;;17.70;13.90;;;;;5.00;100657.00;;;;10359425;28;20237;-78
2024/03/05 01:07:19;;;;;;;20.57;14.60;;;;;4.90;100651.00;;;;10357093;28;20273;-74
2024/03/05 01:12:20;;;;;;;19.00;14.67;;;;;4.90;100641.00;;;;10354999;28;20250;-76
2024/03/05 01:17:21;;;;;;;20.97;14.63;;;;;4.80;100637.00;;;;10367661;28;20234;-75
2024/03/05 01:22:22;;;;;;;18.83;13.70;;;;;4.80;100640.00;;;;10365010;28;20257;-75
2024/03/05 01:27:24;;;;;;;23.83;14.60;;;;;4.80;100636.00;;;;10352883;28;20227;-75
2024/03/05 01:32:28;;;;;;;22.07;16.03;;;;;4.80;100644.00;;;;10373033;28;20285;-76
2024/03/05 01:37:29;;;;;;;21.43;15.40;;;;;4.80;100638.00;;;;10360775;28;20238;-77
2024/03/05 01:42:31;;;;;;;21.13;15.23;;;;;4.80;100631.00;;;;10375903;28;20359;-77
2024/03/05 01:47:33;;;;;;;19.97;14.30;;;;;4.80;100629.00;;;;10390217;28;20824;-76
2024/03/05 01:52:35;;;;;;;17.80;13.33;;;;;4.80;100632.00;;;;10360721;28;20257;-75
2024/03/05 01:57:37;;;;;;;20.20;13.63;;;;;4.90;100624.00;;;;10344358;28;20218;-75
2024/03/05 02:02:39;;;;;;;18.87;12.77;;;;;4.90;100638.00;;;;10385360;28;20226;-82
2024/03/05 02:07:41;;;;;;;17.03;12.70;;;;;5.00;100627.00;;;;10375468;28;20352;-84
2024/03/05 02:12:42;;;;;;;17.37;10.90;;;;;5.00;100625.00;;;;10359663;28;20222;-86
2024/03/05 02:17:43;;;;;;;17.37;10.30;;;;;5.20;100626.00;;;;10361336;28;20305;-83
2024/03/05 02:22:46;;;;;;;16.27;11.03;;;;;5.30;100640.00;;;;10375256;28;20218;-83
2024/03/05 02:27:49;;;;;;;22.20;12.70;;;;;5.30;100620.00;;;;10384461;28;20245;-83
2024/03/05 02:32:51;;;;;;;18.00;13.97;;;;;5.20;100619.00;;;;10409993;28;20805;-84
2024/03/05 02:37:52;;;;;;;16.67;13.10;;;;;5.20;100619.00;;;;10379132;28;20223;-84
2024/03/05 02:42:53;;;;;;;17.43;12.13;;;;;5.20;100621.00;;;;10364366;28;20235;-84
2024/03/05 02:47:55;;;;;;;17.67;12.77;;;;;5.20;100618.00;;;;10373063;28;20657;-84
2024/03/05 02:52:57;;;;;;;17.50;12.50;;;;;5.20;100614.00;;;;10394551;28;20600;-82
2024/03/05 02:57:58;;;;;;;16.67;11.63;;;;;5.20;100620.00;;;;10378664;28;20222;-83
2024/03/05 03:02:59;;;;;;;12.90;10.83;;;;;5.20;100618.00;;;;10374028;28;20696;-83
2024/03/05 03:08:02;;;;;;;16.60;12.97;;;;;5.10;100624.00;;;;10376179;28;20738;-82
2024/03/05 03:13:03;;;;;;;17.93;12.60;;;;;5.10;100628.00;;;;10393906;28;20222;-83
2024/03/05 03:18:05;;;;;;;16.10;11.10;;;;;5.20;100631.00;;;;10367430;28;20697;-78
2024/03/05 03:23:06;;;;;;;16.43;10.87;;;;;5.30;100632.00;;;;10383114;28;20223;-77
2024/03/05 03:28:07;;;;;;;14.50;9.73;;;;;5.50;100628.00;;;;10360897;28;20227;-78
2024/03/05 03:33:09;;;;;;;18.10;9.97;;;;;5.60;100633.00;;;;10373790;28;20869;-78
2024/03/05 03:38:10;;;;;;;14.40;9.40;;;;;5.70;100632.00;;;;10384775;28;20222;-78
2024/03/05 03:43:12;;;;;;;16.93;8.77;;;;;5.80;100632.00;;;;10358563;28;20227;-79
2024/03/05 03:48:13;;;;;;;16.53;10.00;;;;;5.80;100629.00;;;;10369850;28;20226;-78
2024/03/05 03:53:14;;;;;;;18.20;10.27;;;;;5.80;100640.00;;;;10363261;28;21152;-78
2024/03/05 03:58:15;;;;;;;16.93;10.50;;;;;5.70;100645.00;;;;10380545;28;20310;-78
2024/03/05 04:03:17;;;;;;;15.47;11.00;;;;;5.60;100652.00;;;;10385137;28;20217;-78
2024/03/05 04:08:18;;;;;;;16.43;9.53;;;;;5.60;100659.00;;;;10359241;28;20226;-78
2024/03/05 04:13:19;;;;;;;18.93;10.00;;;;;5.60;100661.00;;;;10384647;28;20576;-78
2024/03/05 04:18:21;;;;;;;16.43;9.77;;;;;5.70;100667.00;;;;10382688;28;20615;-79
2024/03/05 04:23:22;;;;;;;13.03;9.10;;;;;5.80;100663.00;;;;10384015;28;20616;-79
2024/03/05 04:28:24;;;;;;;17.17;9.00;;;;;5.80;100665.00;;;;10380452;28;20223;-75
2024/03/05 04:33:28;;;;;;;11.50;8.60;;;;;5.80;100674.00;;;;10381990;28;20253;-75
2024/03/05 04:38:29;;;;;;;12.63;8.67;;;;;5.90;100670.00;;;;10370457;28;20229;-74
2024/03/05 04:43:30;;;;;;;17.97;10.10;;;;;5.90;100670.00;;;;10400551;28;20224;-76
2024/03/05 04:48:32;;;;;;;13.60;9.33;;;;;5.90;100675.00;;;;10385866;28;20844;-76
2024/03/05 04:53:35;;;;;;;15.93;8.50;;;;;5.90;100671.00;;;;10361205;28;20577;-76
2024/03/05 04:58:37;;;;;;;19.40;9.43;;;;;5.80;100670.00;;;;10376926;28;20226;-77
2024/03/05 05:03:38;;;;;;;15.13;9.97;;;;;5.80;100674.00;;;;10354967;28;20264;-76
2024/03/05 05:08:39;;;;;;;13.83;9.70;;;;;5.70;100680.00;;;;10363235;28;20314;-76
2024/03/05 05:13:40;;;;;;;12.67;7.80;;;;;5.70;100678.00;;;;10358722;28;20309;-75
2024/03/05 05:18:45;;;;;;;10.87;7.23;;;;;5.90;100673.00;;;;10378718;28;20247;-76
2024/03/05 05:23:46;;;;;;;9.47;5.73;;;;;6.10;100681.00;;;;10377314;28;20242;-76
2024/03/05 05:28:47;;;;;;;9.73;5.90;;;;;6.20;100674.00;;;;10381651;28;20236;-77
2024/03/05 05:33:48;;;;;;;7.80;4.87;;;;;6.30;100688.00;;;;10362730;28;20288;-75
2024/03/05 05:38:50;;;;;;;8.17;5.30;;;;;6.40;100682.00;;;;10396779;28;20314;-77
2024/03/05 05:43:51;;;;;;;7.27;4.77;;;;;6.40;100679.00;;;;10378880;28;20232;-77
2024/03/05 05:48:52;;;;;;;7.67;5.30;;;;;6.40;100681.00;;;;10371435;28;20975;-77
2024/03/05 05:53:53;;;;;;;11.53;5.27;;;;;6.50;100678.00;;;;10372497;28;20219;-77
2024/03/05 05:58:55;;;;;;;7.70;4.83;;;;;6.50;100670.00;;;;10363820;28;20254;-78
2024/03/05 06:03:56;;;;;;;8.97;5.17;;;;;6.40;100672.00;;;;10379750;28;20280;-78
2024/03/05 06:08:57;;;;;;;9.13;5.07;;;;;6.40;100697.00;;;;10378679;28;20306;-77
2024/03/05 06:13:58;;;;;;;7.67;5.50;;;;;6.40;100689.00;;;;10364136;28;20588;-77
2024/03/05 06:18:59;;;;;;;10.03;5.43;;;;;6.40;100694.00;;;;10362634;28;20225;-77
2024/03/05 06:24:01;;;;;;;6.40;4.30;;;;;6.40;100691.00;;;;10354296;28;20229;-77
2024/03/05 06:29:06;;;;;;;8.90;5.07;;;;;6.40;100708.00;;;;10377313;28;20227;-78
2024/03/05 06:34:10;;;;;;;8.13;4.90;;;;;6.50;100709.00;;;;10345933;28;20663;-77
2024/03/05 06:39:19;;;;;;;5.33;4.20;;;;;6.60;100717.00;;;;10355095;28;20233;-78
2024/03/05 06:44:25;;;;;;;13.43;6.20;;;;;6.70;100705.00;;;;10358625;28;20231;-80
2024/03/05 06:49:37;;;;;;;11.07;5.20;;;;;6.80;100706.00;;;;10326239;28;20226;-84
2024/03/05 06:59:57;;;;;;;7.67;4.23;;;;;7.00;100707.00;;;;10368903;28;20744;-84
2024/03/05 07:05:01;;;;;;;6.03;4.03;;;;;7.10;100707.00;;;;10361995;28;20237;-84
2024/03/05 07:10:13;;;;;;;7.13;4.00;;;;;7.10;100709.00;;;;10393916;28;20222;-84
2024/03/05 07:15:14;;;;;;;5.63;4.10;;;;;7.20;100715.00;;;;10366269;28;20233;-85
2024/03/05 07:20:19;;;;;;;5.60;3.87;;;;;7.30;100718.00;;;;10369453;28;20229;-82
2024/03/05 07:25:22;;;;;;;7.30;4.10;;;;;7.50;100722.00;;;;10367734;28;20238;-84
2024/03/05 07:30:24;;;;;;;8.00;3.77;;;;;7.70;100717.00;;;;10399638;28;20250;-84
2024/03/05 07:35:25;;;;;;;6.80;3.77;;;;;7.90;100721.00;;;;10387663;28;20230;-84
2024/03/05 07:40:26;;;;;;;5.13;3.43;;;;;8.00;100724.00;;;;10386795;28;20707;-84
2024/03/05 07:45:28;;;;;;;6.67;3.20;;;;;8.20;100724.00;;;;10378979;28;20226;-82
2024/03/05 07:50:29;;;;;;;8.47;2.77;;;;;8.30;100727.00;;;;10381291;28;20211;-85
2024/03/05 07:55:30;;;;;;;8.93;3.37;;;;;8.40;100736.00;;;;10398477;28;20272;-83
2024/03/05 08:00:37;;;;;;;6.13;4.00;;;;;8.30;100736.00;;;;10368181;28;20222;-76
2024/03/05 08:05:41;;;;;;;6.60;3.40;;;;;8.20;100741.00;;;;10365897;28;20241;-76
2024/03/05 08:10:48;;;;;;;7.17;4.20;;;;;8.20;100734.00;;;;10360447;28;20215;-76
2024/03/05 08:15:50;;;;;;;4.80;2.97;;;;;8.40;100740.00;;;;10396672;28;20227;-76
2024/03/05 08:20:51;;;;;;;9.13;3.30;;;;;8.40;100746.00;;;;10362760;28;20237;-75
2024/03/05 08:25:52;;;;;;;6.33;4.10;;;;;8.40;100748.00;;;;10382003;28;20313;-76
2024/03/05 08:30:53;;;;;;;7.13;2.93;;;;;8.60;100748.00;;;;10360885;28;20214;-76
2024/03/05 08:35:54;;;;;;;5.60;2.87;;;;;8.70;100758.00;;;;10379195;28;20576;-76
2024/03/05 08:40:55;;;;;;;8.50;3.10;;;;;8.90;100753.00;;;;10352294;28;20233;-74
2024/03/05 08:45:56;;;;;;;8.30;3.30;;;;;9.20;100752.00;;;;10376272;28;20230;-76
2024/03/05 08:50:58;;;;;;;4.77;2.87;;;;;9.50;100754.00;;;;10365531;28;20226;-75
2024/03/05 08:55:59;;;;;;;3.17;2.50;;;;;9.60;100747.00;;;;10343990;28;20744;-77
2024/03/05 09:01:01;;;;;;;3.43;2.50;;;;;9.90;100754.00;;;;10358171;28;20954;-76
2024/03/05 09:06:03;;;;;;;3.73;3.00;;;;;10.20;100756.00;;;;10376776;28;20357;-75
2024/03/05 09:11:05;;;;;;;7.07;3.27;;;;;10.40;100753.00;;;;10372718;28;20218;-80
2024/03/05 09:16:06;;;;;;;6.57;3.10;;;;;10.60;100758.00;;;;10360350;28;20229;-80
2024/03/05 09:21:09;;;;;;;3.57;2.87;;;;;10.60;100760.00;;;;10364002;28;20219;-80
2024/03/05 09:26:14;;;;;;;5.80;2.63;;;;;10.50;100758.00;;;;10390323;28;20611;-79
2024/03/05 09:31:16;;;;;;;5.87;2.93;;;;;10.50;100761.00;;;;10364426;28;20223;-80
2024/03/05 09:36:18;;;;;;;4.93;2.80;;;;;10.60;100765.00;;;;10356704;28;20246;-80
2024/03/05 09:41:19;;;;;;;2.17;1.97;;;;;10.50;100764.00;;;;10390759;28;20246;-79
2024/03/05 09:46:20;;;;;;;4.23;1.83;;;;;10.50;100771.00;;;;10398450;28;20230;-80
2024/03/05 09:51:24;;;;;;;3.30;2.07;;;;;10.70;100770.00;;;;10380401;28;20276;-80
2024/03/05 09:56:26;;;;;;;3.40;1.33;;;;;11.10;100775.00;;;;10380591;28;20355;-80
2024/03/05 10:01:28;;;;;;;1.83;1.53;;;;;11.20;100773.00;;;;10381041;28;20562;-80
2024/03/05 10:06:29;;;;;;;3.80;1.50;;;;;10.90;100786.00;;;;10361430;28;20229;-80
2024/03/05 10:11:31;;;;;;;3.13;1.50;;;;;10.70;100779.00;;;;10354807;28;20302;-80
2024/03/05 10:16:34;;;;;;;2.10;1.57;;;;;10.40;100796.00;;;;10382740;28;20214;-80
2024/03/05 10:21:35;;;;;;;3.73;1.43;;;;;10.30;100789.00;;;;10355872;28;20946;-76
2024/03/05 10:26:38;;;;;;;2.60;1.20;;;;;10.20;100804.00;;;;10359783;28;20308;-76
2024/03/05 10:31:42;;;;;;;1.67;0.80;;;;;10.00;100807.00;;;;10361802;28;20293;-76
2024/03/05 10:36:45;;;;;;;2.13;1.30;;;;;9.60;100806.00;;;;10387654;28;20223;-77
2024/03/05 10:41:52;;;;;;;2.80;1.60;;;;;9.30;100816.00;;;;10356807;28;20310;-76
2024/03/05 10:46:55;;;;;;;2.53;1.30;;;;;9.00;100832.00;;;;10393126;28;20243;-75
2024/03/05 10:51:59;;;;;;;2.10;1.30;;;;;9.10;100836.00;;;;10404751;28;20226;-77
2024/03/05 10:57:01;;;;;;;3.10;1.70;;;;;9.20;100836.00;;;;10388196;28;20223;-76
2024/03/05 11:02:05;;;;;;;3.43;2.07;;;;;9.20;100835.00;;;;10397833;28;20222;-77
2024/03/05 11:07:06;;;;;;;4.40;2.10;;;;;9.30;100831.00;;;;10390997;28;20225;-77
2024/03/05 11:12:12;;;;;;;3.60;2.30;;;;;9.20;100845.00;;;;10386898;28;20226;-76
2024/03/05 11:17:15;;;;;;;3.30;2.13;;;;;9.50;100846.00;;;;10386612;28;20318;-75
2024/03/05 11:22:26;;;;;;;4.50;2.60;;;;;9.90;100836.00;;;;10395329;28;20223;-75
2024/03/05 11:27:30;;;;;;;5.33;2.53;;;;;11.10;100829.00;;;;10394914;28;20227;-77
2024/03/05 11:32:34;;;;;;;4.93;2.60;;;;;11.20;100828.00;;;;10404049;28;20254;-77
2024/03/05 11:37:50;;;;;;;5.40;2.40;;;;;11.20;100826.00;;;;10370946;28;20215;-75
2024/03/05 11:42:52;;;;;;;3.57;2.03;;;;;10.70;100820.00;;;;10398678;28;20222;-75
2024/03/05 11:47:56;;;;;;;5.27;2.30;;;;;10.40;100821.00;;;;10377285;28;20222;-76
2024/03/05 11:52:57;;;;;;;3.83;2.27;;;;;10.70;100829.00;;;;10386068;28;20227;-75
2024/03/05 11:57:58;;;;;;;6.90;2.30;;;;;11.20;100817.00;;;;10387231;28;20222;-75
2024/03/05 12:02:59;;;;;;;4.63;2.10;;;;;11.50;100818.00;;;;10369676;28;20215;-75
2024/03/05 12:08:07;;;;;;;2.87;1.90;;;;;11.90;100809.00;;;;10393724;28;20218;-76
2024/03/05 12:13:10;;;;;;;6.13;2.10;;;;;12.60;100803.00;;;;10366643;28;20828;-74
2024/03/05 12:18:11;;;;;;;3.60;1.87;;;;;13.00;100806.00;;;;10368797;28;20228;-77
2024/03/05 12:23:13;;;;;;;2.97;1.77;;;;;13.10;100799.00;;;;10379340;28;20302;-76
2024/03/05 12:28:34;;;;;;;5.60;2.10;;;;;12.40;100806.00;;;;10367364;28;20343;-76
2024/03/05 12:33:36;;;;;;;4.43;2.07;;;;;11.80;100804.00;;;;10381311;28;20298;-77
2024/03/05 12:38:37;;;;;;;4.70;1.93;;;;;11.60;100806.00;;;;10383556;28;20867;-76
2024/03/05 12:43:38;;;;;;;7.03;2.33;;;;;12.20;100813.00;;;;10349025;28;20230;-75
2024/03/05 12:48:40;;;;;;;7.20;2.37;;;;;11.60;100825.00;;;;10386591;28;20272;-76
2024/03/05 12:53:41;;;;;;;5.13;2.53;;;;;10.90;100830.00;;;;10373985;28;20231;-76
2024/03/05 12:58:43;;;;;;;4.17;2.27;;;;;10.60;100843.00;;;;10388232;28;20262;-77
2024/03/05 13:03:44;;;;;;;4.53;2.47;;;;;10.60;100844.00;;;;10389410;28;20226;-76
2024/03/05 13:08:47;;;;;;;5.73;2.23;;;;;10.70;100844.00;;;;10353973;28;20214;-76
2024/03/05 13:13:56;;;;;;;5.77;2.77;;;;;11.50;100839.00;;;;10325980;28;20219;-76
2024/03/05 13:18:57;;;;;;;5.90;2.83;;;;;12.60;100843.00;;;;10361839;28;20866;-78
2024/03/05 13:23:59;;;;;;;9.17;3.10;;;;;12.60;100848.00;;;;10361395;28;20229;-76
2024/03/05 13:29:02;;;;;;;7.87;3.50;;;;;12.20;100844.00;;;;10394032;28;20260;-76
2024/03/05 13:34:08;;;;;;;7.57;2.80;;;;;11.90;100845.00;;;;10349879;28;20842;-75
2024/03/05 13:39:10;;;;;;;6.97;3.03;;;;;11.80;100844.00;;;;10373101;28;20226;-76
2024/03/05 13:44:12;;;;;;;5.37;2.80;;;;;11.60;100846.00;;;;10359079;28;20227;-76
2024/03/05 13:49:18;;;;;;;4.47;2.87;;;;;11.40;100847.00;;;;10345280;28;20222;-78
2024/03/05 13:54:19;;;;;;;5.03;3.03;;;;;11.20;100848.00;;;;10367064;28;20226;-79
2024/03/05 13:59:20;;;;;;;5.70;3.10;;;;;11.00;100853.00;;;;10350017;28;20321;-79
2024/03/05 14:04:21;;;;;;;5.97;2.90;;;;;11.00;100854.00;;;;10374306;28;20288;-79
2024/03/05 14:09:23;;;;;;;7.37;2.97;;;;;11.10;100839.00;;;;10371524;28;20230;-80
2024/03/05 14:14:24;;;;;;;6.80;2.70;;;;;11.00;100850.00;;;;10345431;28;20226;-80
2024/03/05 14:19:26;;;;;;;3.50;2.30;;;;;10.80;100853.00;;;;10312268;28;20226;-80
2024/03/05 14:24:27;;;;;;;5.23;3.00;;;;;10.60;100856.00;;;;10357586;28;20234;-80
2024/03/05 14:29:28;;;;;;;23.30;5.20;;;;;10.60;100863.00;;;;10372280;28;20313;-80
2024/03/05 14:34:29;;;;;;;9.50;3.10;;;;;10.60;100855.00;;;;10369993;28;20218;-80
2024/03/05 14:39:31;;;;;;;12.27;2.90;;;;;10.60;100870.00;;;;10369270;28;20226;-81
2024/03/05 14:44:32;;;;;;;11.20;2.93;;;;;10.60;100866.00;;;;10380575;28;20344;-80
2024/03/05 14:49:33;;;;;;;6.47;2.70;;;;;10.60;100877.00;;;;10377427;28;20226;-79
2024/03/05 14:54:34;;;;;;;6.00;2.50;;;;;10.50;100870.00;;;;10376252;28;20558;-80
2024/03/05 14:59:35;;;;;;;11.87;3.47;;;;;10.50;100869.00;;;;10345919;28;20285;-77
2024/03/05 15:04:37;;;;;;;5.43;2.50;;;;;10.40;100876.00;;;;10343990;28;20310;-77
2024/03/05 15:09:38;;;;;;;7.73;2.73;;;;;10.50;100880.00;;;;10369937;28;20687;-77
2024/03/05 15:14:40;;;;;;;6.23;2.23;;;;;10.80;100877.00;;;;10386207;28;20218;-78
2024/03/05 15:19:45;;;;;;;6.43;2.80;;;;;10.90;100882.00;;;;10351147;28;20227;-77
2024/03/05 15:24:47;;;;;;;5.77;2.60;;;;;11.10;100874.00;;;;10375964;28;20223;-77
2024/03/05 15:29:48;;;;;;;6.50;2.50;;;;;11.00;100876.00;;;;10380212;28;21108;-76
2024/03/05 15:34:49;;;;;;;5.80;3.20;;;;;11.00;100885.00;;;;10383384;28;20284;-77
2024/03/05 15:39:51;;;;;;;6.50;2.67;;;;;11.00;100893.00;;;;10357161;28;20223;-77
2024/03/05 15:44:52;;;;;;;9.67;3.33;;;;;10.90;100895.00;;;;10370318;28;20317;-76
2024/03/05 15:49:53;;;;;;;6.40;3.00;;;;;10.70;100897.00;;;;10363538;28;20276;-77
2024/03/05 15:54:54;;;;;;;7.60;2.70;;;;;10.60;100891.00;;;;10356666;28;20234;-77
2024/03/05 16:00:07;;;;;;;7.07;2.97;;;;;10.40;100901.00;;;;10366906;28;21095;-77
2024/03/05 16:05:15;;;;;;;5.73;2.80;;;;;10.10;100909.00;;;;10364737;28;20997;-77
2024/03/05 16:10:32;;;;;;;4.90;2.67;;;;;9.60;100926.00;;;;10362594;28;20222;-77
2024/03/05 16:15:46;;;;;;;5.53;2.87;;;;;9.20;100938.00;;;;10391113;28;20222;-77
2024/03/05 16:20:50;;;;;;;4.30;2.70;;;;;9.10;100946.00;;;;10420730;28;20219;-76
2024/03/05 16:25:51;;;;;;;5.37;2.90;;;;;9.10;100945.00;;;;10387722;28;20708;-77
2024/03/05 16:30:52;;;;;;;6.87;3.97;;;;;9.10;100950.00;;;;10391588;28;20336;-74
2024/03/05 16:35:54;;;;;;;11.17;4.63;;;;;9.00;100956.00;;;;10394113;28;20317;-76
2024/03/05 16:40:56;;;;;;;5.50;3.30;;;;;9.00;100955.00;;;;10382616;28;20594;-75
2024/03/05 16:45:58;;;;;;;7.03;3.70;;;;;9.00;100962.00;;;;10358440;28;20230;-78
2024/03/05 16:50:59;;;;;;;8.23;4.23;;;;;8.90;100966.00;;;;10361242;28;20313;-76
2024/03/05 16:56:00;;;;;;;5.37;3.27;;;;;8.80;100964.00;;;;10348272;28;20284;-77
2024/03/05 17:01:06;;;;;;;5.00;2.70;;;;;8.70;100970.00;;;;10386456;28;20217;-77
2024/03/05 17:06:07;;;;;;;7.40;3.53;;;;;8.60;100967.00;;;;10383906;28;20214;-75
2024/03/05 17:11:09;;;;;;;6.70;3.37;;;;;8.40;100981.00;;;;10387239;28;21062;-75
2024/03/05 17:16:11;;;;;;;8.50;3.87;;;;;8.40;100987.00;;;;10359331;28;20226;-74
2024/03/05 17:21:13;;;;;;;9.80;3.50;;;;;8.20;100985.00;;;;10371848;28;20794;-77
2024/03/05 17:26:15;;;;;;;6.97;3.53;;;;;8.10;100991.00;;;;10388108;28;20310;-74
2024/03/05 17:31:17;;;;;;;6.73;3.37;;;;;8.00;100994.00;;;;10358951;28;20984;-74
2024/03/05 17:36:18;;;;;;;8.33;4.93;;;;;8.00;100995.00;;;;10334319;28;20223;-76
2024/03/05 17:41:19;;;;;;;8.00;4.20;;;;;7.90;101011.00;;;;10392680;28;20260;-75
2024/03/05 17:46:20;;;;;;;6.83;4.00;;;;;7.80;101012.00;;;;10362145;28;20276;-74
2024/03/05 17:51:24;;;;;;;6.13;4.20;;;;;7.80;101016.00;;;;10377058;28;20758;-75
2024/03/05 17:56:25;;;;;;;7.37;5.10;;;;;7.80;101018.00;;;;10375267;28;20226;-75
2024/03/05 18:01:26;;;;;;;7.90;5.30;;;;;7.80;101032.00;;;;10379321;28;20217;-75
2024/03/05 18:06:29;;;;;;;6.13;4.93;;;;;7.90;101035.00;;;;10349301;28;20541;-76
2024/03/05 18:11:31;;;;;;;8.10;4.70;;;;;7.90;101038.00;;;;10387812;28;20223;-75
2024/03/05 18:16:32;;;;;;;10.13;5.17;;;;;7.90;101041.00;;;;10347819;28;20230;-75
2024/03/05 18:21:41;;;;;;;15.90;10.07;;;;;7.80;101054.00;;;;10348786;28;20296;-76
2024/03/05 18:26:42;;;;;;;27.83;16.13;;;;;7.80;101052.00;;;;10370773;28;20265;-77
2024/03/05 18:31:48;;;;;;;21.07;13.63;;;;;7.70;101063.00;;;;10387480;28;20222;-77
2024/03/05 18:36:49;;;;;;;15.90;11.27;;;;;7.70;101064.00;;;;10370311;28;20254;-77
2024/03/05 18:41:51;;;;;;;13.73;12.03;;;;;7.70;101062.00;;;;10373958;28;20313;-78
2024/03/05 18:46:52;;;;;;;14.90;11.97;;;;;7.70;101053.00;;;;10367090;28;20234;-78
2024/03/05 18:51:55;;;;;;;12.40;10.20;;;;;7.70;101051.00;;;;10365417;28;20214;-77
2024/03/05 18:56:56;;;;;;;13.53;7.73;;;;;7.70;101046.00;;;;10369485;28;20226;-78
2024/03/05 19:01:57;;;;;;;12.47;6.73;;;;;7.60;101047.00;;;;10400504;28;20228;-78
2024/03/05 19:06:58;;;;;;;9.00;6.00;;;;;7.60;101048.00;;;;10389406;28;20690;-78
2024/03/05 19:12:00;;;;;;;14.43;7.03;;;;;7.70;101039.00;;;;10380110;28;20320;-78
2024/03/05 19:17:02;;;;;;;11.53;7.87;;;;;7.60;101036.00;;;;10395176;28;20649;-78
2024/03/05 19:22:04;;;;;;;18.77;8.43;;;;;7.70;101045.00;;;;10398730;28;20665;-77
2024/03/05 19:27:05;;;;;;;29.37;13.23;;;;;7.60;101038.00;;;;10395630;28;20306;-77
2024/03/05 19:32:06;;;;;;;22.53;11.70;;;;;7.60;101044.00;;;;10378808;28;20301;-78
2024/03/05 19:37:09;;;;;;;12.10;8.57;;;;;7.60;101045.00;;;;10402046;28;20233;-77
2024/03/05 19:42:11;;;;;;;14.07;9.60;;;;;7.50;101047.00;;;;10398498;28;20226;-78
2024/03/05 19:47:12;;;;;;;13.57;9.97;;;;;7.50;101052.00;;;;10382686;28;20226;-78
2024/03/05 19:52:13;;;;;;;16.23;10.63;;;;;7.50;101055.00;;;;10363434;28;20277;-78
2024/03/05 19:57:15;;;;;;;11.30;10.10;;;;;7.50;101045.00;;;;10379227;28;20219;-78
2024/03/05 20:02:16;;;;;;;12.90;10.30;;;;;7.50;101057.00;;;;10397812;28;20603;-77
2024/03/05 20:07:17;;;;;;;15.60;11.50;;;;;7.50;101055.00;;;;10378565;28;20239;-77
2024/03/05 20:12:18;;;;;;;18.60;12.97;;;;;7.50;101057.00;;;;10401507;28;20225;-78
2024/03/05 20:17:20;;;;;;;21.20;13.33;;;;;7.50;101045.00;;;;10400834;28;20226;-77
2024/03/05 20:22:24;;;;;;;14.03;10.47;;;;;7.50;101057.00;;;;10405040;28;20229;-77
2024/03/05 20:27:27;;;;;;;13.37;10.33;;;;;7.50;101050.00;;;;10395301;28;20314;-77
2024/03/05 20:32:29;;;;;;;18.07;10.50;;;;;7.50;101052.00;;;;10394665;28;20219;-77
2024/03/05 20:37:34;;;;;;;14.20;9.57;;;;;7.50;101055.00;;;;10393845;28;20238;-77
2024/03/05 20:42:36;;;;;;;11.03;8.60;;;;;7.50;101072.00;;;;10345937;28;20225;-78
2024/03/05 20:47:38;;;;;;;10.83;9.70;;;;;7.50;101079.00;;;;10402544;28;20801;-76
2024/03/05 20:52:39;;;;;;;10.80;9.03;;;;;7.50;101080.00;;;;10380437;28;20337;-75
2024/03/05 20:57:41;;;;;;;11.33;9.20;;;;;7.50;101082.00;;;;10363250;28;20230;-76
2024/03/05 21:02:45;;;;;;;14.93;9.30;;;;;7.50;101079.00;;;;10391088;28;20226;-76
2024/03/05 21:07:53;;;;;;;12.40;7.63;;;;;7.50;101094.00;;;;10379113;28;21083;-76
2024/03/05 21:12:54;;;;;;;10.63;7.97;;;;;7.50;101104.00;;;;10396226;28;20226;-76
2024/03/05 21:17:55;;;;;;;13.17;9.67;;;;;7.50;101109.00;;;;10364147;28;20221;-78
2024/03/05 21:22:56;;;;;;;12.53;8.60;;;;;7.50;101100.00;;;;10414175;28;20237;-77
2024/03/05 21:27:58;;;;;;;11.53;7.77;;;;;7.50;101095.00;;;;10411467;28;20218;-77
2024/03/05 21:32:59;;;;;;;9.37;6.93;;;;;7.40;101107.00;;;;10398156;28;20231;-77
2024/03/05 21:38:01;;;;;;;9.67;7.77;;;;;7.40;101088.00;;;;10396970;28;20215;-78
2024/03/05 21:43:03;;;;;;;10.50;8.37;;;;;7.40;101105.00;;;;10382926;28;20229;-77
2024/03/05 21:48:05;;;;;;;9.40;7.40;;;;;7.40;101114.00;;;;10327277;28;20245;-77
2024/03/05 21:53:06;;;;;;;11.50;8.20;;;;;7.40;101119.00;;;;10358658;28;20230;-78
2024/03/05 21:58:08;;;;;;;13.17;8.60;;;;;7.40;101119.00;;;;10362799;28;20227;-77
2024/03/05 22:03:09;;;;;;;12.63;8.30;;;;;7.40;101118.00;;;;10397314;28;20757;-77
2024/03/05 22:08:10;;;;;;;11.83;8.13;;;;;7.30;101120.00;;;;10381824;28;20304;-78
2024/03/05 22:13:11;;;;;;;9.70;7.40;;;;;7.30;101118.00;;;;10396315;28;20215;-77
2024/03/05 22:18:15;;;;;;;13.47;7.33;;;;;7.20;101120.00;;;;10363164;28;20227;-77
2024/03/05 22:23:16;;;;;;;9.17;6.17;;;;;7.20;101122.00;;;;10388815;28;20251;-77
2024/03/05 22:28:17;;;;;;;10.53;5.80;;;;;7.10;101122.00;;;;10362252;28;20211;-77
2024/03/05 22:33:19;;;;;;;11.03;6.90;;;;;7.10;101129.00;;;;10366877;28;20568;-78
2024/03/05 22:38:20;;;;;;;8.67;6.40;;;;;7.00;101140.00;;;;10376558;28;20225;-78
2024/03/05 22:43:22;;;;;;;14.47;10.90;;;;;6.90;101147.00;;;;10373169;28;20231;-78
2024/03/05 22:48:24;;;;;;;9.53;6.80;;;;;6.80;101138.00;;;;10383688;28;20321;-77
2024/03/05 22:53:25;;;;;;;8.90;6.60;;;;;6.80;101136.00;;;;10391416;28;20270;-75
2024/03/05 22:58:27;;;;;;;9.20;5.93;;;;;6.70;101156.00;;;;10354193;28;20882;-79
2024/03/05 23:03:28;;;;;;;7.77;6.30;;;;;6.70;101149.00;;;;10340105;28;20234;-77
2024/03/05 23:08:31;;;;;;;7.70;6.27;;;;;6.70;101145.00;;;;10351936;28;20227;-77
2024/03/05 23:13:32;;;;;;;9.43;7.27;;;;;6.70;101149.00;;;;10360261;28;20230;-77
2024/03/05 23:18:33;;;;;;;7.93;5.87;;;;;6.60;101148.00;;;;10395486;28;20215;-76
2024/03/05 23:23:34;;;;;;;7.53;6.10;;;;;6.60;101149.00;;;;10363625;28;20219;-75
2024/03/05 23:28:37;;;;;;;8.27;6.17;;;;;6.50;101146.00;;;;10417224;28;20234;-74
2024/03/05 23:33:38;;;;;;;8.77;6.20;;;;;6.40;101151.00;;;;10398307;28;20793;-75
2024/03/05 23:38:39;;;;;;;6.03;5.40;;;;;6.30;101158.00;;;;10403801;28;20222;-77
2024/03/05 23:43:40;;;;;;;8.03;5.63;;;;;6.20;101163.00;;;;10399813;28;20341;-79
2024/03/05 23:48:42;;;;;;;9.77;6.97;;;;;6.20;101168.00;;;;10398449;28;20230;-75
2024/03/05 23:53:43;;;;;;;8.77;6.63;;;;;6.10;101169.00;;;;10397429;28;20218;-77
2024/03/05 23:58:44;;;;;;;8.17;6.30;;;;;6.00;101165.00;;;;10410057;28;20308;-75
